Time;durP1;ratioP1;P1;durP2;ratioP2;P2;SDS_P1;SDS_P2;PMS_P1;PMS_P2;Temp;Humidity;BMP_temperature;BMP_pressure;BME280_temperature;BME280_humidity;BME280_pressure;Samples;Min_cycle;Max_cycle;Signal;HPM_P1;HPM_P2
2022/01/18 01:45:20;;;;;;;18.70;9.27;;;7.00;99.90;;;;;;4989452;23;20235;-90
2022/01/18 01:47:51;;;;;;;16.95;9.70;;;6.70;99.90;;;;;;4997646;28;20664;-90
2022/01/18 01:50:20;;;;;;;15.98;9.82;;;6.80;99.90;;;;;;4997822;28;20290;-89
2022/01/18 01:52:48;;;;;;;16.15;10.15;;;6.90;99.90;;;;;;5004136;28;20207;-90
2022/01/18 01:55:17;;;;;;;12.35;8.38;;;7.20;99.90;;;;;;5003426;28;20313;-90
2022/01/18 01:57:44;;;;;;;14.95;9.95;;;7.20;99.90;;;;;;4998044;28;20623;-91
2022/01/18 02:00:15;;;;;;;17.40;10.57;;;7.00;99.90;;;;;;5007681;28;20211;-89
2022/01/18 02:02:44;;;;;;;17.20;10.02;;;7.10;99.90;;;;;;5001877;28;20198;-89
2022/01/18 02:05:11;;;;;;;18.00;11.05;;;6.90;99.90;;;;;;4996929;28;20258;-89
2022/01/18 02:07:39;;;;;;;22.05;11.20;;;7.20;99.90;;;;;;4996434;28;20203;-89
2022/01/18 02:10:07;;;;;;;15.82;11.00;;;7.30;99.90;;;;;;4996935;28;20242;-89
2022/01/18 02:12:34;;;;;;;16.13;11.38;;;7.20;99.90;;;;;;4997264;28;20694;-89
2022/01/18 02:15:10;;;;;;;19.85;11.10;;;7.10;99.90;;;;;;4997033;28;20227;-89
2022/01/18 02:23:23;;;;;;;20.48;13.00;;;6.80;99.90;;;;;;5002585;28;20190;-89
2022/01/18 02:25:50;;;;;;;17.30;12.25;;;6.90;99.90;;;;;;5003219;28;20322;-88
2022/01/18 02:28:18;;;;;;;17.60;10.90;;;7.10;99.90;;;;;;5001637;28;20222;-88
2022/01/18 02:30:46;;;;;;;18.77;11.50;;;7.30;99.90;;;;;;5001126;28;20235;-90
2022/01/18 02:33:13;;;;;;;16.58;12.02;;;7.30;99.90;;;;;;5001787;28;20269;-90
2022/01/18 02:35:42;;;;;;;17.58;11.45;;;7.20;99.90;;;;;;5000907;28;20281;-90
2022/01/18 02:38:09;;;;;;;19.77;11.65;;;7.50;99.90;;;;;;5006905;28;20254;-89
2022/01/18 02:40:36;;;;;;;17.65;11.77;;;7.30;99.90;;;;;;5001334;28;20230;-89
2022/01/18 02:45:47;;;;;;;19.60;11.90;;;7.60;99.90;;;;;;5002192;28;20232;-89
2022/01/18 02:48:21;;;;;;;19.33;12.93;;;7.50;99.90;;;;;;5005498;28;20277;-89
2022/01/18 02:50:50;;;;;;;17.15;10.25;;;7.30;99.90;;;;;;5002022;28;20586;-88
2022/01/18 02:53:17;;;;;;;15.48;9.80;;;7.40;99.90;;;;;;5001045;28;20684;-89
2022/01/18 02:55:44;;;;;;;19.60;11.25;;;7.40;99.90;;;;;;5000356;28;20317;-90
2022/01/18 02:58:11;;;;;;;16.85;10.93;;;7.40;99.90;;;;;;5008389;28;20228;-88
2022/01/18 03:03:10;;;;;;;19.25;12.60;;;7.10;99.90;;;;;;5011884;28;20207;-89
2022/01/18 03:03:30;;;;;;;19.58;11.25;;;7.50;99.90;;;;;;5008305;28;20199;-89
2022/01/18 03:06:00;;;;;;;16.48;11.40;;;7.50;99.90;;;;;;5011485;28;20236;-89
2022/01/18 03:08:27;;;;;;;17.70;11.35;;;7.30;99.90;;;;;;5002251;28;20215;-89
2022/01/18 03:10:55;;;;;;;18.30;12.73;;;6.90;99.90;;;;;;5006733;28;20238;-89
2022/01/18 03:13:22;;;;;;;19.95;13.23;;;7.20;99.90;;;;;;5020429;28;20242;-87
2022/01/18 03:15:49;;;;;;;25.40;11.88;;;6.80;99.90;;;;;;5015619;28;20230;-88
2022/01/18 03:18:16;;;;;;;19.38;10.98;;;7.40;99.90;;;;;;5017314;28;20219;-87
2022/01/18 03:20:44;;;;;;;23.25;12.98;;;7.30;99.90;;;;;;5014607;28;20214;-88
2022/01/18 03:23:16;;;;;;;20.50;13.38;;;7.20;99.90;;;;;;5007289;28;20202;-88
2022/01/18 03:25:54;;;;;;;22.42;12.95;;;7.20;99.90;;;;;;5011523;28;20619;-88
2022/01/18 03:28:22;;;;;;;19.50;11.75;;;6.90;99.90;;;;;;5001244;28;20221;-88
2022/01/18 03:30:53;;;;;;;19.95;11.65;;;6.90;99.90;;;;;;5000729;28;20199;-88
2022/01/18 03:33:21;;;;;;;18.90;12.65;;;7.30;99.90;;;;;;5000647;28;20663;-89
2022/01/18 03:35:50;;;;;;;21.23;13.18;;;7.30;99.90;;;;;;4999730;28;20258;-88
2022/01/18 03:38:19;;;;;;;19.88;12.15;;;7.40;99.90;;;;;;5000839;28;20245;-88
2022/01/18 03:40:47;;;;;;;17.67;12.63;;;7.40;99.90;;;;;;5000113;28;20302;-89
2022/01/18 03:43:14;;;;;;;16.98;10.85;;;7.20;99.90;;;;;;5003348;28;20202;-88
2022/01/18 03:45:44;;;;;;;22.63;12.10;;;7.00;99.90;;;;;;5009968;28;20229;-88
2022/01/18 03:48:16;;;;;;;18.67;11.25;;;7.20;99.90;;;;;;4999790;28;20202;-88
2022/01/18 03:50:43;;;;;;;21.58;13.27;;;7.10;99.90;;;;;;4999412;28;20245;-89
2022/01/18 03:53:11;;;;;;;25.65;13.35;;;7.00;99.90;;;;;;4999243;28;20282;-88
2022/01/18 03:55:40;;;;;;;23.10;13.07;;;7.00;99.90;;;;;;4999490;28;20239;-89
2022/01/18 03:58:07;;;;;;;18.83;12.77;;;6.80;99.90;;;;;;5005450;28;20220;-89
2022/01/18 04:00:34;;;;;;;20.23;11.85;;;7.20;99.90;;;;;;5004489;28;20226;-88
2022/01/18 04:03:01;;;;;;;19.42;12.35;;;7.20;99.90;;;;;;5005839;28;20209;-89
2022/01/18 04:05:28;;;;;;;19.60;13.32;;;7.10;99.90;;;;;;5002579;28;20299;-88
2022/01/18 04:07:55;;;;;;;21.13;13.50;;;7.00;99.90;;;;;;5006414;28;20338;-88
2022/01/18 04:10:22;;;;;;;20.55;12.20;;;7.10;99.90;;;;;;4999974;28;20311;-88
2022/01/18 04:12:51;;;;;;;21.60;13.43;;;7.20;99.90;;;;;;4999583;28;20745;-88
2022/01/18 04:15:19;;;;;;;25.73;14.98;;;7.20;99.90;;;;;;4998312;28;20227;-89
2022/01/18 04:18:09;;;;;;;19.83;12.93;;;7.10;99.90;;;;;;5002187;28;20242;-89
2022/01/18 04:26:52;;;;;;;23.15;14.20;;;7.40;99.90;;;;;;5002805;28;20241;-89
2022/01/18 04:28:56;;;;;;;21.88;13.30;;;7.00;99.90;;;;;;5001432;28;20222;-88
2022/01/18 04:31:24;;;;;;;21.60;14.27;;;6.90;99.90;;;;;;5000739;28;20222;-88
2022/01/18 04:33:52;;;;;;;21.63;13.45;;;7.30;99.90;;;;;;4998645;28;20255;-89
2022/01/18 04:36:19;;;;;;;27.75;13.55;;;6.80;99.90;;;;;;5002187;28;20234;-88
2022/01/18 04:38:46;;;;;;;20.30;13.65;;;7.50;99.90;;;;;;5004271;28;20237;-88
2022/01/18 04:41:16;;;;;;;23.55;13.73;;;7.60;99.90;;;;;;4999763;28;20234;-88
2022/01/18 04:43:52;;;;;;;23.52;14.18;;;7.40;99.90;;;;;;4998802;28;20584;-88
2022/01/18 04:49:06;;;;;;;21.55;13.10;;;6.80;99.90;;;;;;4998584;28;20198;-88
2022/01/18 04:51:34;;;;;;;23.05;14.15;;;6.90;99.90;;;;;;5000183;28;20208;-88
2022/01/18 04:54:02;;;;;;;21.75;12.77;;;7.20;99.90;;;;;;5015141;28;20194;-88
2022/01/18 04:59:13;;;;;;;21.27;12.25;;;7.50;99.90;;;;;;4997991;28;20278;-89
2022/01/18 05:01:44;;;;;;;21.23;13.20;;;7.60;99.90;;;;;;4998520;28;20219;-88
2022/01/18 05:04:11;;;;;;;24.88;15.18;;;7.30;99.90;;;;;;4998546;28;20206;-88
2022/01/18 05:06:38;;;;;;;28.58;14.30;;;7.30;99.90;;;;;;4999070;28;20269;-88
2022/01/18 05:09:08;;;;;;;25.38;14.30;;;7.20;99.90;;;;;;4998671;28;20291;-88
2022/01/18 05:11:40;;;;;;;23.70;13.82;;;7.20;99.90;;;;;;5006760;28;20209;-88
2022/01/18 05:14:19;;;;;;;26.83;15.70;;;7.20;99.90;;;;;;5015167;28;20214;-89
2022/01/18 05:16:55;;;;;;;31.38;14.43;;;7.20;99.90;;;;;;5018924;28;20203;-88
2022/01/18 05:19:27;;;;;;;24.40;13.45;;;7.10;99.90;;;;;;5007509;28;20199;-89
2022/01/18 05:24:39;;;;;;;28.88;15.90;;;7.50;99.90;;;;;;5000993;28;20733;-88
2022/01/18 05:27:06;;;;;;;27.17;15.10;;;7.20;99.90;;;;;;5000335;28;20238;-88
2022/01/18 05:29:33;;;;;;;27.70;15.70;;;7.40;99.90;;;;;;5012409;28;20251;-88
2022/01/18 05:32:01;;;;;;;25.60;15.45;;;7.40;99.90;;;;;;5006679;28;20279;-87
2022/01/18 05:34:28;;;;;;;23.85;12.68;;;7.30;99.90;;;;;;5000690;28;20206;-89
2022/01/18 05:36:55;;;;;;;24.88;13.80;;;6.80;99.90;;;;;;4999487;28;20245;-88
2022/01/18 05:39:22;;;;;;;27.35;12.93;;;7.00;99.90;;;;;;5001398;28;20216;-89
2022/01/18 05:41:49;;;;;;;27.40;14.80;;;6.70;99.90;;;;;;4999311;28;20216;-88
2022/01/18 05:44:16;;;;;;;24.63;14.93;;;6.80;99.90;;;;;;5001311;28;20237;-88
2022/01/18 05:46:43;;;;;;;23.77;15.90;;;7.10;99.90;;;;;;5004544;28;20226;-88
2022/01/18 05:49:12;;;;;;;22.77;15.80;;;6.80;99.90;;;;;;5008940;28;20202;-89
2022/01/18 05:51:41;;;;;;;24.40;13.65;;;6.90;99.90;;;;;;5001404;28;20311;-88
2022/01/18 05:54:08;;;;;;;28.30;15.43;;;6.50;99.90;;;;;;5001559;28;20210;-88
2022/01/18 05:56:36;;;;;;;26.90;14.77;;;7.00;99.90;;;;;;5002407;28;20598;-88
2022/01/18 05:59:05;;;;;;;23.52;15.18;;;6.70;99.90;;;;;;5009483;28;20221;-88
2022/01/18 06:01:38;;;;;;;31.27;16.25;;;6.80;99.90;;;;;;5002390;28;20623;-88
2022/01/18 06:04:16;;;;;;;23.13;15.45;;;7.00;99.90;;;;;;5002219;28;20548;-89
2022/01/18 06:06:54;;;;;;;26.27;15.40;;;6.90;99.90;;;;;;5008958;28;20221;-88
2022/01/18 06:09:23;;;;;;;25.70;13.55;;;6.60;99.90;;;;;;5008527;28;20643;-89
2022/01/18 06:11:51;;;;;;;24.02;15.85;;;7.00;99.90;;;;;;5002958;28;20728;-88
2022/01/18 06:14:19;;;;;;;33.22;16.83;;;6.90;99.90;;;;;;5002994;28;20234;-88
2022/01/18 06:16:46;;;;;;;22.80;13.50;;;6.70;99.90;;;;;;5003888;28;20613;-88
2022/01/18 06:19:13;;;;;;;29.42;14.77;;;6.40;99.90;;;;;;5003012;28;20295;-88
2022/01/18 06:21:40;;;;;;;30.58;16.10;;;6.60;99.90;;;;;;5019319;28;20214;-89
2022/01/18 06:24:11;;;;;;;23.08;12.98;;;6.80;99.90;;;;;;5013465;28;20218;-89
2022/01/18 06:26:39;;;;;;;31.23;14.48;;;6.90;99.90;;;;;;5002267;28;20687;-89
2022/01/18 06:29:06;;;;;;;26.73;15.43;;;6.90;99.90;;;;;;5003381;28;20252;-88
2022/01/18 06:31:33;;;;;;;23.23;14.45;;;6.50;99.90;;;;;;5004875;28;20239;-88
2022/01/18 06:34:00;;;;;;;29.23;14.82;;;6.70;99.90;;;;;;5003755;28;20206;-88
2022/01/18 06:36:27;;;;;;;33.70;17.45;;;6.60;99.90;;;;;;5013936;28;20233;-88
2022/01/18 06:38:54;;;;;;;25.60;14.98;;;6.60;99.90;;;;;;5018977;28;20201;-89
2022/01/18 06:41:23;;;;;;;30.23;14.00;;;6.50;99.90;;;;;;5009111;28;20230;-89
2022/01/18 06:43:50;;;;;;;27.05;16.10;;;6.40;99.90;;;;;;5002883;28;20632;-89
2022/01/18 06:46:20;;;;;;;32.20;17.70;;;6.60;99.90;;;;;;5011189;28;20302;-90
2022/01/18 06:48:47;;;;;;;19.92;11.38;;;6.60;99.90;;;;;;5016463;28;20195;-89
2022/01/18 06:51:15;;;;;;;25.60;14.98;;;6.30;99.90;;;;;;5005441;28;20234;-89
2022/01/18 06:53:46;;;;;;;27.27;14.30;;;6.50;99.90;;;;;;5004071;28;20211;-89
2022/01/18 06:56:15;;;;;;;27.88;16.25;;;6.70;99.90;;;;;;5003301;28;20551;-89
2022/01/18 06:58:44;;;;;;;33.63;16.50;;;6.50;99.90;;;;;;5003895;28;20667;-90
2022/01/18 07:01:12;;;;;;;25.50;14.93;;;6.60;99.90;;;;;;5002813;28;20265;-89
2022/01/18 07:03:40;;;;;;;30.92;17.20;;;6.50;99.90;;;;;;5004497;28;20211;-89
2022/01/18 07:06:08;;;;;;;32.97;17.80;;;6.50;99.90;;;;;;5004484;28;20239;-89
2022/01/18 07:08:36;;;;;;;29.02;18.50;;;6.40;99.90;;;;;;5003332;28;20290;-89
2022/01/18 07:11:04;;;;;;;31.23;18.40;;;6.30;99.90;;;;;;5005179;28;20214;-89
2022/01/18 07:13:31;;;;;;;33.15;16.75;;;6.20;99.90;;;;;;5004275;28;20215;-90
2022/01/18 07:16:08;;;;;;;28.42;18.73;;;6.30;99.90;;;;;;5003156;28;20281;-90
2022/01/18 07:18:35;;;;;;;30.38;16.60;;;6.40;99.90;;;;;;5010975;28;20201;-89
2022/01/18 07:21:02;;;;;;;26.17;15.57;;;6.20;99.90;;;;;;5019610;28;20207;-89
2022/01/18 07:23:29;;;;;;;28.13;16.85;;;6.20;99.90;;;;;;5012809;28;20210;-88
2022/01/18 07:25:56;;;;;;;25.70;16.20;;;5.90;99.90;;;;;;5015668;28;20342;-88
2022/01/18 07:28:23;;;;;;;24.33;12.50;;;6.40;99.90;;;;;;5004620;28;20255;-89
2022/01/18 07:30:51;;;;;;;27.23;14.10;;;5.90;99.90;;;;;;5005778;28;20262;-89
2022/01/18 07:33:19;;;;;;;30.42;16.63;;;6.40;99.90;;;;;;5002986;28;20234;-87
2022/01/18 07:35:47;;;;;;;24.23;13.82;;;6.30;99.90;;;;;;5003170;28;20227;-88
2022/01/18 07:38:17;;;;;;;24.83;13.10;;;6.40;99.90;;;;;;5000888;28;20221;-89
2022/01/18 07:40:56;;;;;;;27.98;15.05;;;6.40;99.90;;;;;;5007785;28;20266;-91
2022/01/18 07:43:25;;;;;;;29.98;15.05;;;6.40;99.90;;;;;;5003773;28;20209;-89
2022/01/18 08:35:39;;;;;;;;;;;;;;;;;;;;;
2022/01/18 11:15:45;;;;;;;19.42;10.63;;;7.40;99.90;;;;;;4953399;29;20543;-87
2022/01/18 11:21:30;;;;;;;17.48;9.90;;;7.60;99.90;;;;;;4938376;29;20300;-87
2022/01/18 11:24:14;;;;;;;21.20;11.07;;;7.60;99.90;;;;;;4942020;29;20276;-88
2022/01/18 11:27:03;;;;;;;18.92;10.25;;;7.40;99.90;;;;;;4941802;29;20268;-88
2022/01/18 11:29:47;;;;;;;19.77;12.10;;;6.90;99.90;;;;;;4944955;29;20212;-87
2022/01/18 11:32:21;;;;;;;19.60;10.88;;;7.30;99.90;;;;;;4946138;29;20236;-88
2022/01/18 11:35:19;;;;;;;16.25;9.55;;;7.30;99.90;;;;;;4952073;29;20231;-88
2022/01/18 11:55:03;;;;;;;15.18;9.25;;;7.20;99.90;;;;;;4798612;29;20227;-86
2022/01/18 11:57:37;;;;;;;14.82;8.00;;;7.40;99.90;;;;;;4866529;29;20264;-86
2022/01/18 12:04:11;;;;;;;18.52;9.02;;;7.50;99.90;;;;;;4860373;29;20284;-87
2022/01/18 12:07:44;;;;;;;14.25;9.02;;;7.60;99.90;;;;;;4931139;29;20247;-87
2022/01/18 12:22:17;;;;;;;14.00;6.88;;;8.10;99.90;;;;;;4959230;28;20636;-86
2022/01/18 12:32:29;;;;;;;13.98;7.45;;;7.50;99.90;;;;;;4865186;29;20236;-86
2022/01/18 12:41:45;;;;;;;14.18;8.00;;;7.60;99.90;;;;;;4849368;29;20644;-87
2022/01/18 12:45:38;;;;;;;13.75;7.60;;;7.50;99.90;;;;;;4947225;28;20288;-87
2022/01/18 13:47:25;;;;;;;8.95;4.38;;;7.60;99.90;;;;;;4958779;23;20255;-88
2022/01/18 13:49:58;;;;;;;8.43;4.05;;;7.40;99.90;;;;;;4985589;28;20212;-87
2022/01/18 13:52:30;;;;;;;9.80;4.15;;;7.10;99.90;;;;;;4986460;28;20204;-86
2022/01/18 13:57:33;;;;;;;9.48;4.60;;;7.50;99.90;;;;;;3031712;23;20250;-86
2022/01/18 14:00:11;;;;;;;10.07;4.60;;;7.40;99.90;;;;;;4985231;28;20262;-86
2022/01/18 14:02:43;;;;;;;9.40;4.90;;;7.40;99.90;;;;;;4986281;28;20215;-86
2022/01/18 14:05:11;;;;;;;8.15;4.32;;;7.40;99.90;;;;;;4989670;28;20212;-89
2022/01/18 14:07:41;;;;;;;9.05;5.25;;;7.50;99.90;;;;;;4988162;28;20235;-87
2022/01/18 14:10:12;;;;;;;6.65;3.80;;;7.40;99.90;;;;;;4987181;28;20219;-88
2022/01/18 14:12:38;;;;;;;5.13;3.35;;;7.60;99.90;;;;;;4987879;28;20670;-88
2022/01/18 14:15:06;;;;;;;9.82;4.75;;;7.30;99.90;;;;;;4988469;28;20207;-87
2022/01/18 14:17:34;;;;;;;7.45;3.72;;;7.60;99.90;;;;;;4987067;28;20330;-87
2022/01/18 14:20:13;;;;;;;10.50;5.57;;;7.70;99.90;;;;;;4987499;28;20597;-89
2022/01/18 14:22:40;;;;;;;13.63;6.43;;;7.50;99.90;;;;;;4986102;28;20198;-87
2022/01/18 14:25:11;;;;;;;11.80;3.88;;;7.40;99.90;;;;;;4989926;28;20530;-88
2022/01/18 14:27:42;;;;;;;9.20;4.40;;;7.70;99.90;;;;;;4988780;28;20294;-87
2022/01/18 14:30:23;;;;;;;8.75;4.40;;;7.60;99.90;;;;;;5000996;28;20191;-87
2022/01/18 14:32:52;;;;;;;9.18;4.63;;;7.20;99.90;;;;;;5000525;28;20224;-85
2022/01/18 14:35:23;;;;;;;6.25;2.90;;;7.30;99.90;;;;;;4997303;28;20244;-84
2022/01/18 14:37:51;;;;;;;7.15;3.40;;;7.50;99.90;;;;;;5000723;28;20250;-87
2022/01/18 14:40:21;;;;;;;6.68;3.63;;;7.50;99.90;;;;;;4994884;28;20203;-87
2022/01/18 14:42:50;;;;;;;6.63;3.15;;;7.40;99.90;;;;;;4997859;28;20191;-87
2022/01/18 14:45:32;;;;;;;7.28;3.83;;;7.30;99.90;;;;;;4996002;28;20227;-87
2022/01/18 14:48:00;;;;;;;7.60;3.55;;;7.70;99.90;;;;;;4990949;28;20238;-86
2022/01/18 14:50:29;;;;;;;8.60;3.70;;;7.70;99.90;;;;;;4988331;28;20299;-87
2022/01/18 14:52:56;;;;;;;8.52;3.67;;;7.20;99.90;;;;;;4991728;28;20294;-87
2022/01/18 14:55:25;;;;;;;8.98;3.38;;;7.40;99.90;;;;;;4988698;28;20231;-87
2022/01/18 14:57:53;;;;;;;8.57;2.60;;;7.20;99.90;;;;;;4988284;28;20259;-88
2022/01/18 15:00:21;;;;;;;4.40;2.40;;;7.50;99.90;;;;;;4987755;28;20299;-88
2022/01/18 15:02:49;;;;;;;8.05;2.80;;;7.30;99.90;;;;;;4985910;28;20219;-86
2022/01/18 15:05:16;;;;;;;4.57;2.30;;;7.80;99.90;;;;;;4987672;28;20230;-86
2022/01/18 15:07:45;;;;;;;6.57;3.50;;;7.10;99.90;;;;;;4997996;28;20238;-86
2022/01/18 15:10:14;;;;;;;7.50;3.00;;;7.50;99.90;;;;;;4991100;28;20633;-86
2022/01/18 15:12:43;;;;;;;5.57;2.83;;;7.70;99.90;;;;;;4986831;28;20628;-86
2022/01/18 15:15:11;;;;;;;5.15;3.00;;;7.90;99.90;;;;;;4987941;28;20211;-87
2022/01/18 15:17:38;;;;;;;8.13;3.00;;;8.00;99.90;;;;;;4988739;28;20709;-86
2022/01/18 15:20:07;;;;;;;9.98;4.88;;;7.50;99.90;;;;;;4986876;28;20588;-86
2022/01/18 15:22:34;;;;;;;7.60;3.22;;;7.60;99.90;;;;;;4987716;28;20243;-87
2022/01/18 15:25:02;;;;;;;7.15;3.45;;;7.30;99.90;;;;;;4987440;28;20292;-86
2022/01/18 15:27:29;;;;;;;5.72;2.95;;;7.60;99.90;;;;;;4996435;28;20256;-87
2022/01/18 15:29:57;;;;;;;8.75;3.10;;;7.70;99.90;;;;;;4995786;28;20438;-86
2022/01/18 15:32:26;;;;;;;5.53;2.60;;;7.20;99.90;;;;;;4986664;28;20196;-86
2022/01/18 15:34:54;;;;;;;5.85;3.28;;;7.50;99.90;;;;;;4983672;28;20211;-85
2022/01/18 15:37:20;;;;;;;8.43;3.47;;;7.60;99.90;;;;;;4984841;28;20262;-86
2022/01/18 15:39:49;;;;;;;8.25;3.17;;;7.30;99.90;;;;;;4985589;28;20255;-85
2022/01/18 15:42:19;;;;;;;7.72;3.30;;;7.70;99.90;;;;;;4985531;28;20216;-86
2022/01/18 15:44:46;;;;;;;15.63;4.10;;;7.70;99.90;;;;;;4985590;28;20279;-86
2022/01/18 15:47:14;;;;;;;14.98;4.65;;;7.70;99.90;;;;;;4986876;28;20228;-85
2022/01/18 15:49:41;;;;;;;4.50;2.47;;;7.50;99.90;;;;;;4997374;28;20251;-86
2022/01/18 15:52:08;;;;;;;6.97;3.10;;;7.10;99.90;;;;;;4996128;28;20211;-86
2022/01/18 15:54:35;;;;;;;9.32;2.78;;;7.30;99.90;;;;;;4988338;28;20267;-87
2022/01/18 15:57:07;;;;;;;8.73;3.38;;;7.00;99.90;;;;;;4989586;28;20291;-87
2022/01/18 15:59:36;;;;;;;6.30;3.10;;;7.20;99.90;;;;;;4997247;28;20211;-87
2022/01/18 16:02:04;;;;;;;8.05;2.78;;;7.30;99.90;;;;;;4996480;28;20196;-87
2022/01/18 16:04:31;;;;;;;8.63;3.17;;;7.20;99.90;;;;;;4990521;28;20299;-88
2022/01/18 16:06:58;;;;;;;15.10;8.15;;;7.10;99.90;;;;;;4987953;28;20683;-87
2022/01/18 16:09:26;;;;;;;8.38;4.13;;;7.10;99.90;;;;;;4987996;28;20200;-87
2022/01/18 16:11:53;;;;;;;5.82;2.90;;;6.70;99.90;;;;;;4997991;28;20228;-86
2022/01/18 16:14:20;;;;;;;5.55;2.78;;;7.20;99.90;;;;;;4990175;28;20316;-87
2022/01/18 16:16:49;;;;;;;5.95;2.58;;;7.30;99.90;;;;;;4991967;28;20242;-85
2022/01/18 16:19:16;;;;;;;6.55;3.20;;;7.20;99.90;;;;;;4997396;28;20212;-88
2022/01/18 16:21:46;;;;;;;5.18;2.40;;;6.80;99.90;;;;;;4989665;28;20228;-88
2022/01/18 16:24:17;;;;;;;5.75;4.15;;;7.10;99.90;;;;;;4987468;28;20204;-86
2022/01/18 16:26:44;;;;;;;6.05;2.15;;;7.10;99.90;;;;;;4986037;28;20326;-88
2022/01/18 16:29:11;;;;;;;5.28;3.00;;;7.00;99.90;;;;;;4985722;28;20235;-87
2022/01/18 16:31:41;;;;;;;6.43;2.75;;;7.20;99.90;;;;;;4986378;28;20223;-90
2022/01/18 16:34:09;;;;;;;4.90;2.78;;;7.20;99.90;;;;;;4985781;28;20205;-87
2022/01/18 16:36:37;;;;;;;6.32;3.10;;;6.70;99.90;;;;;;4986047;28;20262;-89
2022/01/18 16:39:05;;;;;;;14.48;3.95;;;7.00;99.90;;;;;;4985801;28;20210;-88
2022/01/18 16:41:33;;;;;;;5.30;2.70;;;7.10;99.90;;;;;;4986329;28;20207;-87
2022/01/18 16:44:01;;;;;;;6.20;2.55;;;7.30;99.90;;;;;;4985207;28;20200;-88
2022/01/18 16:46:29;;;;;;;7.30;2.92;;;7.20;99.90;;;;;;4985965;28;20216;-88
2022/01/18 16:48:57;;;;;;;5.05;2.58;;;7.00;99.90;;;;;;4986043;28;20238;-89
2022/01/18 16:51:25;;;;;;;7.13;3.15;;;7.40;99.90;;;;;;4985557;28;20212;-87
2022/01/18 16:53:53;;;;;;;4.20;2.50;;;7.30;99.90;;;;;;4985547;28;20238;-89
2022/01/18 16:56:20;;;;;;;5.00;2.83;;;7.30;99.90;;;;;;4985650;28;20228;-88
2022/01/18 16:58:51;;;;;;;6.63;2.65;;;7.20;99.90;;;;;;4987199;28;20235;-88
2022/01/18 17:01:20;;;;;;;7.07;3.25;;;7.20;99.90;;;;;;4985711;28;20192;-88
2022/01/18 17:03:47;;;;;;;5.00;3.15;;;6.90;99.90;;;;;;4985731;28;20680;-88
2022/01/18 17:06:15;;;;;;;6.03;2.83;;;7.10;99.90;;;;;;4993720;28;20324;-86
2022/01/18 17:08:43;;;;;;;5.25;2.42;;;7.10;99.90;;;;;;4989989;28;20236;-88
2022/01/18 17:11:12;;;;;;;36.35;19.92;;;7.20;99.90;;;;;;4993296;28;20202;-87
2022/01/18 17:13:39;;;;;;;6.60;3.03;;;7.30;99.90;;;;;;4998331;28;20203;-88
2022/01/18 17:16:07;;;;;;;8.02;5.00;;;7.30;99.90;;;;;;4986098;28;20294;-88
2022/01/18 17:18:34;;;;;;;5.93;4.10;;;7.30;99.90;;;;;;4987943;28;20230;-89
2022/01/18 17:21:02;;;;;;;8.93;3.20;;;7.00;99.90;;;;;;4991441;28;20219;-86
2022/01/18 17:23:30;;;;;;;8.38;3.92;;;7.20;99.90;;;;;;4988508;28;20207;-88
2022/01/18 17:25:58;;;;;;;6.95;3.28;;;7.00;99.90;;;;;;4987173;28;20607;-88
2022/01/18 17:28:25;;;;;;;6.25;3.35;;;7.10;99.90;;;;;;4984773;28;20239;-88
2022/01/18 17:30:52;;;;;;;6.03;3.35;;;7.00;99.90;;;;;;4983457;28;20266;-89
2022/01/18 17:33:19;;;;;;;7.57;3.30;;;6.70;99.90;;;;;;4984611;28;20199;-88
2022/01/18 17:35:47;;;;;;;5.35;2.80;;;6.80;99.90;;;;;;4988929;28;20233;-86
2022/01/18 17:38:14;;;;;;;8.93;3.45;;;6.70;99.90;;;;;;4995197;28;20183;-89
2022/01/18 17:40:44;;;;;;;6.63;3.90;;;6.70;99.90;;;;;;4997837;28;20207;-87
2022/01/18 17:43:13;;;;;;;5.38;3.13;;;6.80;99.90;;;;;;4996543;28;20204;-87
2022/01/18 17:45:41;;;;;;;5.13;3.25;;;7.00;99.90;;;;;;4992569;28;20192;-86
2022/01/18 17:48:09;;;;;;;7.05;3.03;;;7.20;99.90;;;;;;5001055;28;20227;-87
2022/01/18 17:50:37;;;;;;;4.93;3.15;;;6.90;99.90;;;;;;4994081;28;20653;-88
2022/01/18 17:53:04;;;;;;;7.95;4.03;;;7.20;99.90;;;;;;4989622;28;20223;-87
2022/01/18 17:55:31;;;;;;;8.32;3.60;;;6.70;99.90;;;;;;4989919;28;20211;-88
2022/01/18 17:57:58;;;;;;;9.65;4.20;;;6.90;99.90;;;;;;4991349;28;20246;-87
2022/01/18 18:00:27;;;;;;;6.47;3.70;;;6.60;99.90;;;;;;4992084;28;20305;-88
2022/01/18 18:02:54;;;;;;;7.07;3.00;;;6.80;99.90;;;;;;4992172;28;20211;-88
2022/01/18 18:05:21;;;;;;;6.00;3.63;;;6.50;99.90;;;;;;4997813;28;20654;-88
2022/01/18 18:07:48;;;;;;;6.43;3.70;;;6.90;99.90;;;;;;5001162;28;20219;-86
2022/01/18 18:10:19;;;;;;;8.52;4.82;;;6.90;99.90;;;;;;4998495;28;20207;-89
2022/01/18 18:12:46;;;;;;;6.35;3.58;;;7.20;99.90;;;;;;4997604;28;20208;-89
2022/01/18 18:15:18;;;;;;;9.00;4.15;;;6.80;99.90;;;;;;4998018;28;20238;-87
2022/01/18 18:17:48;;;;;;;6.60;3.58;;;7.20;99.90;;;;;;4998807;28;20280;-89
2022/01/18 18:20:16;;;;;;;8.00;4.82;;;7.30;99.90;;;;;;4999445;28;20227;-88
2022/01/18 18:22:43;;;;;;;7.10;4.75;;;6.80;99.90;;;;;;4999267;28;20241;-89
2022/01/18 18:25:10;;;;;;;8.63;4.43;;;6.50;99.90;;;;;;4994824;28;20214;-89
2022/01/18 18:27:37;;;;;;;7.35;4.82;;;7.00;99.90;;;;;;4993962;28;20313;-88
2022/01/18 18:30:05;;;;;;;8.35;4.55;;;6.60;99.90;;;;;;4998232;28;20230;-88
2022/01/18 18:32:32;;;;;;;10.05;4.90;;;6.80;99.90;;;;;;4991614;28;20243;-90
2022/01/18 18:35:13;;;;;;;8.70;5.63;;;6.90;99.90;;;;;;4991628;28;20204;-88
2022/01/18 18:37:40;;;;;;;10.98;5.03;;;6.80;99.90;;;;;;4992208;28;20231;-90
2022/01/18 18:40:16;;;;;;;8.57;5.72;;;6.90;99.90;;;;;;4990060;28;20230;-88
2022/01/18 18:42:59;;;;;;;14.27;6.43;;;7.00;99.90;;;;;;4988557;28;20199;-88
2022/01/18 18:45:28;;;;;;;7.10;4.22;;;6.80;99.90;;;;;;4990367;28;20231;-88
2022/01/18 18:47:55;;;;;;;10.50;5.50;;;6.70;99.90;;;;;;4989890;28;20255;-89
2022/01/18 18:50:24;;;;;;;11.10;7.18;;;6.40;99.90;;;;;;4987366;28;20219;-88
2022/01/18 18:52:51;;;;;;;11.60;5.70;;;6.50;99.90;;;;;;4988331;28;20248;-87
2022/01/18 18:55:18;;;;;;;8.30;4.90;;;6.70;99.90;;;;;;4988319;28;20204;-88
2022/01/18 18:57:53;;;;;;;8.10;4.80;;;6.90;99.90;;;;;;4985572;28;20676;-88
2022/01/18 19:00:24;;;;;;;7.30;4.95;;;6.60;99.90;;;;;;4986396;28;20248;-87
2022/01/18 19:03:03;;;;;;;8.68;6.00;;;6.80;99.90;;;;;;4986133;28;20214;-89
2022/01/18 19:05:34;;;;;;;14.13;6.03;;;6.80;99.90;;;;;;4988552;28;20264;-87
2022/01/18 19:08:01;;;;;;;9.98;6.38;;;6.80;99.90;;;;;;4988012;28;20322;-88
2022/01/18 19:10:29;;;;;;;9.50;5.38;;;7.00;99.90;;;;;;4986945;28;20215;-88
2022/01/18 19:12:57;;;;;;;16.92;8.73;;;6.90;99.90;;;;;;4987923;28;20212;-88
2022/01/18 19:15:24;;;;;;;8.32;5.47;;;7.00;99.90;;;;;;4987938;28;20297;-89
2022/01/18 19:17:52;;;;;;;11.68;5.60;;;6.80;99.90;;;;;;4994363;28;20255;-88
2022/01/18 19:20:20;;;;;;;10.80;7.38;;;6.90;99.90;;;;;;4998608;28;20315;-85
2022/01/18 19:23:40;;;;;;;11.77;6.10;;;7.00;99.90;;;;;;4994408;28;20234;-88
2022/01/18 19:26:12;;;;;;;10.10;7.57;;;6.80;99.90;;;;;;4993228;28;20254;-90
2022/01/18 19:28:41;;;;;;;12.63;6.43;;;6.80;99.90;;;;;;4989823;28;20230;-89
2022/01/18 19:31:14;;;;;;;8.63;5.88;;;6.80;99.90;;;;;;4987583;28;20211;-89
2022/01/18 19:33:45;;;;;;;11.57;5.43;;;6.80;99.90;;;;;;4989305;28;20573;-87
2022/01/18 19:36:18;;;;;;;8.38;5.50;;;6.80;99.90;;;;;;4987354;28;20246;-87
2022/01/18 19:38:49;;;;;;;10.27;5.57;;;6.80;99.90;;;;;;4987613;28;20572;-87
2022/01/18 19:41:39;;;;;;;8.70;5.30;;;6.60;99.90;;;;;;4988126;28;20288;-87
2022/01/18 19:44:07;;;;;;;9.85;5.32;;;6.80;99.90;;;;;;4997583;28;20198;-87
2022/01/18 19:46:56;;;;;;;8.70;5.38;;;6.80;99.90;;;;;;5044168;23;20219;-86
2022/01/18 19:49:47;;;;;;;10.68;6.20;;;6.70;99.90;;;;;;5007998;28;20225;-86
2022/01/18 19:52:37;;;;;;;7.30;4.35;;;6.90;99.90;;;;;;5009026;28;20210;-87
2022/01/18 19:58:23;;;;;;;8.75;5.97;;;6.60;99.90;;;;;;5009321;28;20315;-86
2022/01/18 20:04:42;;;;;;;11.80;6.85;;;6.60;99.90;;;;;;4997812;28;20218;-85
2022/01/18 20:07:24;;;;;;;;;;;;;;;;;;;;;
2022/01/18 20:10:12;;;;;;;9.10;5.90;;;6.90;99.90;;;;;;5006328;28;20237;-84
2022/01/18 20:16:01;;;;;;;13.55;6.22;;;6.80;99.90;;;;;;5002984;28;20687;-86
2022/01/18 20:18:49;;;;;;;6.97;5.15;;;6.60;99.90;;;;;;5007482;28;20229;-86
2022/01/18 20:21:23;;;;;;;9.40;5.25;;;6.50;99.90;;;;;;5008011;28;20230;-86
2022/01/18 20:24:26;;;;;;;9.50;5.70;;;6.40;99.90;;;;;;5006417;28;20208;-84
2022/01/18 20:27:12;;;;;;;10.52;5.70;;;6.40;99.90;;;;;;5006765;28;20621;-84
2022/01/18 20:29:53;;;;;;;8.45;5.75;;;6.30;99.90;;;;;;5007158;28;20244;-85
2022/01/18 20:32:33;;;;;;;7.68;5.30;;;6.40;99.90;;;;;;5006382;28;20214;-85
2022/01/18 20:35:05;;;;;;;7.28;5.10;;;6.40;99.90;;;;;;5006506;28;20238;-85
2022/01/18 20:37:43;;;;;;;7.45;5.15;;;6.40;99.90;;;;;;5006531;28;20262;-85
2022/01/18 20:40:25;;;;;;;10.13;5.40;;;6.50;99.90;;;;;;5006024;28;20277;-85
2022/01/18 20:45:48;;;;;;;8.50;4.97;;;6.60;99.90;;;;;;5005685;28;20241;-85